createdAt,value
2017-05-19T00:00:44.633Z,97.71
2017-05-19T00:01:44.666Z,97.81
2017-05-19T00:02:44.596Z,97.9
2017-05-19T00:03:44.573Z,97.42
2017-05-19T00:04:44.554Z,98
2017-05-19T00:05:44.531Z,98
2017-05-19T00:06:44.518Z,98
2017-05-19T00:07:44.493Z,98.19
2017-05-19T00:08:44.176Z,98.19
2017-05-19T00:09:44.551Z,97.9
2017-05-19T00:10:44.433Z,97.61
2017-05-19T00:11:44.410Z,97.42
2017-05-19T00:12:44.390Z,98.1
2017-05-19T00:13:44.370Z,98.19
2017-05-19T00:14:44.348Z,98
2017-05-19T00:15:44.331Z,98.19
2017-05-19T00:16:44.362Z,98.1
2017-05-19T00:17:44.290Z,97.9
2017-05-19T00:18:43.969Z,98.57
2017-05-19T00:19:44.248Z,98.57
2017-05-19T00:20:44.279Z,98.43
2017-05-19T00:21:44.199Z,98.38
2017-05-19T00:22:44.193Z,98.43
2017-05-19T00:23:44.172Z,98.19
2017-05-19T00:24:44.154Z,98.62
2017-05-19T00:25:44.127Z,98.48
2017-05-19T00:26:44.157Z,98.52
2017-05-19T00:27:44.092Z,98.19
2017-05-19T00:28:44.120Z,98.81
2017-05-19T00:29:44.048Z,98.72
2017-05-19T00:30:44.036Z,98.52
2017-05-19T00:31:44.009Z,98.81
2017-05-19T00:32:43.992Z,98.91
2017-05-19T00:33:43.963Z,99.19
2017-05-19T00:34:43.948Z,99.29
2017-05-19T00:35:43.936Z,99.19
2017-05-19T00:36:43.907Z,99.19
2017-05-19T00:37:43.887Z,99.19
2017-05-19T00:38:43.866Z,99.01
2017-05-19T00:39:43.542Z,98.81
2017-05-19T00:40:43.830Z,99.1
2017-05-19T00:41:43.809Z,99.1
2017-05-19T00:42:43.780Z,99.01
2017-05-19T00:43:43.763Z,99.01
2017-05-19T00:44:43.744Z,99.01
2017-05-19T00:45:43.722Z,98.62
2017-05-19T00:46:43.707Z,98.86
2017-05-19T00:47:43.378Z,99.34
2017-05-19T00:48:43.668Z,99.58
2017-05-19T00:49:43.647Z,99.39
2017-05-19T00:50:43.622Z,99.48
2017-05-19T00:51:43.602Z,99.48
2017-05-19T00:52:43.584Z,99.19
2017-05-19T00:53:43.563Z,99.44
2017-05-19T00:54:43.843Z,99.24
2017-05-19T00:55:43.518Z,99.99
2017-05-19T00:56:43.506Z,99.82
2017-05-19T00:57:43.488Z,99.48
2017-05-19T00:58:43.463Z,99.77
2017-05-19T00:59:43.446Z,99.77
2017-05-19T01:00:43.420Z,99.96
2017-05-19T01:01:43.403Z,99.77
2017-05-19T01:02:43.384Z,99.68
2017-05-19T01:03:43.361Z,99.39
2017-05-19T01:04:43.343Z,99.58
2017-05-19T01:05:43.312Z,99.99
2017-05-19T01:06:43.002Z,99.77
2017-05-19T01:07:43.280Z,99.99
2017-05-19T01:08:43.261Z,99.96
2017-05-19T01:09:43.237Z,99.99
2017-05-19T01:10:43.220Z,99.96
2017-05-19T01:11:43.207Z,99.87
2017-05-19T01:12:43.180Z,99.99
2017-05-19T01:13:43.157Z,99.99
2017-05-19T01:14:43.140Z,99.99
2017-05-19T01:15:43.116Z,99.99
2017-05-19T01:16:43.107Z,99.99
2017-05-19T01:17:43.080Z,99.99
2017-05-19T01:18:43.056Z,99.99
2017-05-19T01:19:43.040Z,99.99
2017-05-19T01:20:43.022Z,99.99
2017-05-19T01:21:43.005Z,99.99
2017-05-19T01:22:43.029Z,99.99
2017-05-19T01:23:42.954Z,99.99
2017-05-19T01:24:42.937Z,99.99
2017-05-19T01:25:42.916Z,99.99
2017-05-19T01:26:42.894Z,99.99
2017-05-19T01:27:42.879Z,99.99
2017-05-19T01:28:42.860Z,99.99
2017-05-19T01:29:42.835Z,99.99
2017-05-19T01:30:42.522Z,99.99
2017-05-19T01:31:42.801Z,99.99
2017-05-19T01:32:42.771Z,99.99
2017-05-19T01:33:42.756Z,99.99
2017-05-19T01:34:42.730Z,99.99
2017-05-19T01:35:42.717Z,99.99
2017-05-19T01:36:42.692Z,99.99
2017-05-19T01:37:42.673Z,99.99
2017-05-19T01:38:42.650Z,99.99
2017-05-19T01:39:42.630Z,99.99
2017-05-19T01:40:42.611Z,99.99
2017-05-19T01:41:42.593Z,99.99
2017-05-19T01:42:42.571Z,99.99
2017-05-19T01:43:42.556Z,99.99
2017-05-19T01:44:42.531Z,99.99
2017-05-19T01:45:42.517Z,99.99
2017-05-19T01:46:42.491Z,99.99
2017-05-19T01:47:42.473Z,99.99
2017-05-19T01:48:42.457Z,99.99
2017-05-19T01:49:42.434Z,99.99
2017-05-19T01:50:42.410Z,99.99
2017-05-19T01:51:42.436Z,99.99
2017-05-19T01:52:42.385Z,99.99
2017-05-19T01:53:42.349Z,99.99
2017-05-19T01:54:42.330Z,99.99
2017-05-19T01:55:42.310Z,99.99
2017-05-19T01:56:42.292Z,99.99
2017-05-19T01:57:41.971Z,99.99
2017-05-19T01:58:42.250Z,99.99
2017-05-19T01:59:42.229Z,99.99
2017-05-19T02:00:42.209Z,99.99
2017-05-19T02:01:42.188Z,99.99
2017-05-19T02:02:42.167Z,99.99
2017-05-19T02:03:42.179Z,99.99
2017-05-19T02:04:42.132Z,99.99
2017-05-19T02:05:42.111Z,99.99
2017-05-19T02:06:42.092Z,99.99
2017-05-19T02:07:42.071Z,99.99
2017-05-19T02:08:42.055Z,99.99
2017-05-19T02:09:42.026Z,99.99
2017-05-19T02:10:42.059Z,99.99
2017-05-19T02:11:41.994Z,99.99
2017-05-19T02:12:41.966Z,99.99
2017-05-19T02:13:41.949Z,99.99
2017-05-19T02:14:41.926Z,99.99
2017-05-19T02:15:41.906Z,99.99
2017-05-19T02:16:41.883Z,99.99
2017-05-19T02:17:41.872Z,99.99
2017-05-19T02:18:41.849Z,99.99
2017-05-19T02:19:41.833Z,99.99
2017-05-19T02:20:41.815Z,99.99
2017-05-19T02:21:41.785Z,99.99
2017-05-19T02:22:41.769Z,99.99
2017-05-19T02:23:41.748Z,99.99
2017-05-19T02:24:41.729Z,99.99
2017-05-19T02:25:41.702Z,99.99
2017-05-19T02:26:41.739Z,99.99
2017-05-19T02:27:41.666Z,99.99
2017-05-19T02:28:41.642Z,99.99
2017-05-19T02:29:41.621Z,99.99
2017-05-19T02:30:41.606Z,99.99
2017-05-19T02:31:41.591Z,99.99
2017-05-19T02:32:41.562Z,99.99
2017-05-19T02:33:41.546Z,99.99
2017-05-19T02:34:41.525Z,99.99
2017-05-19T02:35:41.503Z,99.99
2017-05-19T02:36:41.481Z,99.99
2017-05-19T02:37:41.462Z,99.99
2017-05-19T02:38:41.449Z,99.99
2017-05-19T02:39:41.419Z,99.99
2017-05-19T02:40:41.659Z,99.99
2017-05-19T02:41:41.387Z,99.99
2017-05-19T02:42:41.364Z,99.99
2017-05-19T02:43:41.340Z,99.99
2017-05-19T02:44:41.321Z,99.99
2017-05-19T02:45:41.300Z,99.99
2017-05-19T02:46:41.279Z,99.99
2017-05-19T02:47:41.270Z,99.99
2017-05-19T02:48:41.242Z,99.99
2017-05-19T02:49:41.220Z,99.99
2017-05-19T02:50:41.196Z,99.99
2017-05-19T02:51:41.177Z,99.99
2017-05-19T02:52:41.164Z,99.99
2017-05-19T02:53:41.141Z,99.99
2017-05-19T02:54:40.813Z,99.99
2017-05-19T02:55:41.104Z,99.99
2017-05-19T02:56:41.125Z,99.99
2017-05-19T02:57:41.060Z,99.99
2017-05-19T02:58:41.039Z,99.99
2017-05-19T02:59:41.017Z,99.99
2017-05-19T03:00:40.996Z,99.99
2017-05-19T03:01:41.030Z,99.99
2017-05-19T03:02:40.958Z,99.99
2017-05-19T03:03:40.994Z,99.99
2017-05-19T03:04:40.915Z,99.99
2017-05-19T03:05:40.952Z,99.99
2017-05-19T03:06:40.873Z,99.99
2017-05-19T03:07:40.851Z,99.99
2017-05-19T03:08:40.832Z,99.99
2017-05-19T03:09:40.812Z,99.99
2017-05-19T03:10:40.790Z,99.99
2017-05-19T03:11:40.786Z,99.99
2017-05-19T03:12:40.768Z,99.99
2017-05-19T03:13:40.736Z,99.99
2017-05-19T03:14:40.455Z,99.99
2017-05-19T03:15:40.698Z,99.99
2017-05-19T03:16:40.675Z,99.99
2017-05-19T03:17:40.654Z,99.99
2017-05-19T03:18:40.636Z,99.99
2017-05-19T03:19:40.606Z,99.99
2017-05-19T03:20:40.592Z,99.99
2017-05-19T03:21:40.560Z,99.99
2017-05-19T03:22:40.245Z,99.99
2017-05-19T03:23:40.530Z,99.99
2017-05-19T03:24:40.507Z,99.99
2017-05-19T03:25:40.490Z,99.77
2017-05-19T03:26:40.467Z,99.58
2017-05-19T03:27:40.454Z,99.58
2017-05-19T03:28:40.424Z,99.58
2017-05-19T03:29:40.659Z,99.77
2017-05-19T03:30:40.385Z,99.77
2017-05-19T03:31:40.360Z,99.87
2017-05-19T03:32:40.345Z,99.96
2017-05-19T03:33:40.327Z,98.72
2017-05-19T03:34:40.305Z,98.81
2017-05-19T03:35:40.287Z,98.91
2017-05-19T03:36:40.260Z,99.1
2017-05-19T03:37:40.246Z,99.01
2017-05-19T03:38:40.224Z,98.43
2017-05-19T03:39:40.202Z,98.43
2017-05-19T03:40:40.187Z,98.24
2017-05-19T03:41:40.162Z,98.52
2017-05-19T03:42:40.143Z,98.43
2017-05-19T03:43:40.120Z,98.33
2017-05-19T03:44:40.100Z,97.85
2017-05-19T03:45:39.779Z,98.14
2017-05-19T03:46:40.058Z,97.56
2017-05-19T03:47:40.037Z,97.85
2017-05-19T03:48:40.024Z,97.76
2017-05-19T03:49:39.998Z,97.66
2017-05-19T03:50:39.983Z,97.38
2017-05-19T03:51:39.960Z,96.99
2017-05-19T03:52:39.940Z,97.28
2017-05-19T03:53:39.916Z,97.18
2017-05-19T03:54:39.897Z,97.09
2017-05-19T03:55:39.877Z,97.09
2017-05-19T03:56:39.559Z,96.89
2017-05-19T03:57:39.837Z,97.09
2017-05-19T03:58:39.823Z,97.18
2017-05-19T03:59:39.796Z,96.7
2017-05-19T04:00:39.782Z,96.42
2017-05-19T04:01:39.759Z,96.61
2017-05-19T04:02:39.743Z,96.8
2017-05-19T04:03:39.719Z,96.89
2017-05-19T04:04:39.697Z,96.18
2017-05-19T04:05:39.677Z,96.27
2017-05-19T04:06:39.657Z,96.47
2017-05-19T04:07:39.638Z,96.27
2017-05-19T04:08:39.619Z,95.98
2017-05-19T04:09:39.598Z,96.18
2017-05-19T04:10:39.576Z,95.51
2017-05-19T04:11:39.606Z,96.08
2017-05-19T04:12:39.539Z,95.31
2017-05-19T04:13:39.513Z,95.41
2017-05-19T04:14:39.198Z,95.51
2017-05-19T04:15:39.480Z,95.41
2017-05-19T04:16:39.504Z,94.84
2017-05-19T04:17:39.438Z,94.84
2017-05-19T04:18:39.415Z,94.54
2017-05-19T04:19:39.398Z,94.74
2017-05-19T04:20:39.380Z,94.35
2017-05-19T04:21:39.358Z,94.17
2017-05-19T04:22:39.338Z,94.21
2017-05-19T04:23:39.427Z,94.26
2017-05-19T04:24:39.297Z,93.82
2017-05-19T04:25:39.276Z,93.82
2017-05-19T04:26:39.262Z,93.54
2017-05-19T04:27:39.241Z,94.12
2017-05-19T04:28:39.221Z,94.4
2017-05-19T04:29:39.195Z,93.73
2017-05-19T04:30:39.178Z,93.06
2017-05-19T04:31:39.159Z,92.77
2017-05-19T04:32:39.141Z,93.06
2017-05-19T04:33:39.115Z,92.58
2017-05-19T04:34:39.099Z,92.39
2017-05-19T04:35:39.091Z,92.58
2017-05-19T04:36:39.057Z,92.48
2017-05-19T04:37:39.047Z,92.48
2017-05-19T04:38:39.028Z,92.39
2017-05-19T04:39:39.003Z,92.29
2017-05-19T04:40:38.982Z,92.39
2017-05-19T04:41:38.959Z,92.19
2017-05-19T04:42:38.942Z,91.81
2017-05-19T04:43:38.919Z,91.91
2017-05-19T04:44:38.896Z,91.72
2017-05-19T04:45:38.888Z,91.81
2017-05-19T04:46:38.861Z,91.81
2017-05-19T04:47:38.842Z,92.1
2017-05-19T04:48:38.819Z,91.81
2017-05-19T04:49:38.802Z,91.72
2017-05-19T04:50:38.786Z,91.72
2017-05-19T04:51:38.764Z,91.72
2017-05-19T04:52:38.745Z,91.72
2017-05-19T04:53:38.729Z,91.81
2017-05-19T04:54:38.701Z,91.81
2017-05-19T04:55:38.688Z,92
2017-05-19T04:56:38.659Z,91.91
2017-05-19T04:57:38.640Z,91.91
2017-05-19T04:58:38.619Z,92
2017-05-19T04:59:38.601Z,91.72
2017-05-19T05:00:38.584Z,91.62
2017-05-19T05:01:38.569Z,91.72
2017-05-19T05:02:38.543Z,91.14
2017-05-19T05:03:38.523Z,91.52
2017-05-19T05:04:38.509Z,91.52
2017-05-19T05:05:38.484Z,91.42
2017-05-19T05:06:38.160Z,91.52
2017-05-19T05:07:38.448Z,91.42
2017-05-19T05:08:38.434Z,91.05
2017-05-19T05:09:38.401Z,91.33
2017-05-19T05:10:38.382Z,90.66
2017-05-19T05:11:38.363Z,91.05
2017-05-19T05:12:38.350Z,91.33
2017-05-19T05:13:38.322Z,90.95
2017-05-19T05:14:38.307Z,90.66
2017-05-19T05:15:38.281Z,90.85
2017-05-19T05:16:38.275Z,90.95
2017-05-19T05:17:38.243Z,90.18
2017-05-19T05:18:38.227Z,90.18
2017-05-19T05:19:38.202Z,90.66
2017-05-19T05:20:38.182Z,90.37
2017-05-19T05:21:38.164Z,90.18
2017-05-19T05:22:38.146Z,90.18
2017-05-19T05:23:38.126Z,90.37
2017-05-19T05:24:38.109Z,90.37
2017-05-19T05:25:38.084Z,90.47
2017-05-19T05:26:38.074Z,90.28
2017-05-19T05:27:38.050Z,90.37
2017-05-19T05:28:38.030Z,90.18
2017-05-19T05:29:38.003Z,90.18
2017-05-19T05:30:37.987Z,90.18
2017-05-19T05:31:37.676Z,90.37
2017-05-19T05:32:37.957Z,90.56
2017-05-19T05:33:37.930Z,90.37
2017-05-19T05:34:37.907Z,90.18
2017-05-19T05:35:37.886Z,90.66
2017-05-19T05:36:37.868Z,90.85
2017-05-19T05:37:37.847Z,90.75
2017-05-19T05:38:37.838Z,90.18
2017-05-19T05:39:37.813Z,90.75
2017-05-19T05:40:37.795Z,90.56
2017-05-19T05:41:37.768Z,90.75
2017-05-19T05:42:37.753Z,90.85
2017-05-19T05:43:37.736Z,90.85
2017-05-19T05:44:37.706Z,90.75
2017-05-19T05:45:37.692Z,90.95
2017-05-19T05:46:37.673Z,90.95
2017-05-19T05:47:37.647Z,90.75
2017-05-19T05:48:37.624Z,91.14
2017-05-19T05:49:37.606Z,91.05
2017-05-19T05:50:37.589Z,91.14
2017-05-19T05:51:37.583Z,91.24
2017-05-19T05:52:37.599Z,91.09
2017-05-19T05:53:37.581Z,91
2017-05-19T05:54:37.508Z,91.19
2017-05-19T05:55:37.492Z,91.33
2017-05-19T05:56:37.470Z,91.19
2017-05-19T05:57:37.446Z,90.9
2017-05-19T05:58:37.433Z,91.19
2017-05-19T05:59:37.410Z,91.19
2017-05-19T06:00:37.395Z,91.67
2017-05-19T06:01:37.363Z,91.62
2017-05-19T06:02:37.601Z,91.72
2017-05-19T06:03:37.331Z,91.72
2017-05-19T06:04:37.311Z,91.28
2017-05-19T06:05:37.287Z,91.14
2017-05-19T06:06:37.270Z,91.33
2017-05-19T06:07:37.249Z,91.42
2017-05-19T06:08:37.231Z,91.14
2017-05-19T06:09:37.215Z,91.28
2017-05-19T06:10:37.193Z,91.42
2017-05-19T06:11:37.177Z,91.52
2017-05-19T06:12:37.147Z,91.48
2017-05-19T06:13:37.128Z,91.48
2017-05-19T06:14:37.106Z,91.52
2017-05-19T06:15:37.087Z,91.19
2017-05-19T06:16:37.067Z,91.09
2017-05-19T06:17:37.049Z,91.19
2017-05-19T06:18:37.037Z,91.05
2017-05-19T06:19:37.014Z,90.81
2017-05-19T06:20:36.984Z,91.28
2017-05-19T06:21:36.969Z,91.38
2017-05-19T06:22:36.947Z,91.33
2017-05-19T06:23:36.623Z,90.81
2017-05-19T06:24:36.904Z,90.81
2017-05-19T06:25:36.885Z,91.28
2017-05-19T06:26:36.867Z,91.57
2017-05-19T06:27:36.842Z,91.62
2017-05-19T06:28:36.827Z,91.09
2017-05-19T06:29:36.506Z,91.09
2017-05-19T06:30:36.786Z,91
2017-05-19T06:31:36.767Z,91.19
2017-05-19T06:32:36.749Z,90.85
2017-05-19T06:33:36.722Z,90.85
2017-05-19T06:34:36.708Z,91.24
2017-05-19T06:35:36.689Z,91.05
2017-05-19T06:36:36.664Z,91.14
2017-05-19T06:37:36.645Z,91.14
2017-05-19T06:38:36.631Z,91.14
2017-05-19T06:39:36.605Z,91.05
2017-05-19T06:40:36.589Z,91.05
2017-05-19T06:41:36.565Z,90.66
2017-05-19T06:42:36.549Z,90.85
2017-05-19T06:43:36.225Z,90.75
2017-05-19T06:44:36.506Z,90.56
2017-05-19T06:45:36.492Z,90.56
2017-05-19T06:46:36.179Z,90.66
2017-05-19T06:47:36.449Z,90.75
2017-05-19T06:48:36.432Z,91.05
2017-05-19T06:49:36.105Z,90.75
2017-05-19T06:50:36.386Z,90.75
2017-05-19T06:51:36.365Z,90.47
2017-05-19T06:52:36.347Z,91.05
2017-05-19T06:53:36.328Z,90.95
2017-05-19T06:54:36.309Z,90.8
2017-05-19T06:55:36.290Z,90.66
2017-05-19T06:56:36.273Z,90.99
2017-05-19T06:57:36.248Z,90.42
2017-05-19T06:58:36.227Z,90.9
2017-05-19T06:59:36.214Z,90.18
2017-05-19T07:00:36.189Z,90.28
2017-05-19T07:01:36.172Z,90.13
2017-05-19T07:02:36.156Z,90.13
2017-05-19T07:03:36.133Z,90.32
2017-05-19T07:04:36.116Z,89.94
2017-05-19T07:05:36.098Z,90.32
2017-05-19T07:06:35.822Z,89.94
2017-05-19T07:07:36.055Z,90.03
2017-05-19T07:08:36.028Z,90.03
2017-05-19T07:09:36.016Z,89.94
2017-05-19T07:10:35.994Z,90.13
2017-05-19T07:11:35.974Z,90.03
2017-05-19T07:12:35.953Z,89.84
2017-05-19T07:13:35.938Z,89.94
2017-05-19T07:14:35.617Z,89.55
2017-05-19T07:15:35.896Z,89.55
2017-05-19T07:16:35.873Z,89.94
2017-05-19T07:17:35.856Z,89.36
2017-05-19T07:18:35.837Z,89.17
2017-05-19T07:19:35.815Z,89.02
2017-05-19T07:20:35.793Z,89.31
2017-05-19T07:21:35.784Z,89.55
2017-05-19T07:22:35.758Z,89.31
2017-05-19T07:23:35.744Z,89.6
2017-05-19T07:24:35.781Z,89.31
2017-05-19T07:25:35.697Z,89.31
2017-05-19T07:26:35.678Z,89.02
2017-05-19T07:27:35.716Z,88.83
2017-05-19T07:28:35.645Z,88.93
2017-05-19T07:29:35.629Z,88.64
2017-05-19T07:30:35.610Z,88.45
2017-05-19T07:31:35.834Z,87.77
2017-05-19T07:32:35.569Z,88.54
2017-05-19T07:33:35.546Z,88.25
2017-05-19T07:34:35.528Z,88.25
2017-05-19T07:35:35.508Z,88.45
2017-05-19T07:36:35.489Z,88.54
2017-05-19T07:37:35.467Z,88.16
2017-05-19T07:38:35.454Z,88.16
2017-05-19T07:39:35.439Z,87.68
2017-05-19T07:40:35.415Z,88.16
2017-05-19T07:41:35.395Z,87.63
2017-05-19T07:42:35.376Z,87.63
2017-05-19T07:43:35.360Z,87.63
2017-05-19T07:44:35.340Z,87.54
2017-05-19T07:45:35.321Z,87.63
2017-05-19T07:46:35.004Z,87.44
2017-05-19T07:47:34.977Z,87.05
2017-05-19T07:48:34.960Z,86.48
2017-05-19T07:49:35.243Z,86.1
2017-05-19T07:50:35.216Z,86.54
2017-05-19T07:51:35.206Z,85.96
2017-05-19T07:52:35.181Z,86.05
2017-05-19T07:53:35.161Z,85.67
2017-05-19T07:54:35.142Z,86.54
2017-05-19T07:55:35.120Z,86.34
2017-05-19T07:56:35.155Z,86.54
2017-05-19T07:57:35.089Z,86.05
2017-05-19T07:58:35.071Z,86.01
2017-05-19T07:59:35.048Z,86.44
2017-05-19T08:00:35.029Z,86.11
2017-05-19T08:01:35.057Z,86.68
2017-05-19T08:02:34.999Z,86.3
2017-05-19T08:03:34.971Z,86.01
2017-05-19T08:04:34.651Z,86.3
2017-05-19T08:05:34.627Z,86.11
2017-05-19T08:06:34.908Z,86.49
2017-05-19T08:07:34.890Z,86.3
2017-05-19T08:08:34.568Z,86.4
2017-05-19T08:09:34.850Z,86.4
2017-05-19T08:10:34.833Z,86.4
2017-05-19T08:11:34.815Z,86.4
2017-05-19T08:12:34.791Z,86.35
2017-05-19T08:13:34.782Z,86.45
2017-05-19T08:14:34.755Z,86.3
2017-05-19T08:15:34.729Z,86.54
2017-05-19T08:16:34.714Z,86.64
2017-05-19T08:17:34.689Z,86.93
2017-05-19T08:18:34.675Z,87.12
2017-05-19T08:19:34.662Z,87.45
2017-05-19T08:20:34.328Z,86.83
2017-05-19T08:21:34.619Z,87.21
2017-05-19T08:22:34.591Z,87.12
2017-05-19T08:23:34.573Z,87.31
2017-05-19T08:24:34.553Z,87.21
2017-05-19T08:25:34.534Z,87.5
2017-05-19T08:26:34.507Z,86.74
2017-05-19T08:27:34.494Z,87.21
2017-05-19T08:28:34.471Z,87.21
2017-05-19T08:29:34.450Z,86.93
2017-05-19T08:30:34.435Z,86.83
2017-05-19T08:31:34.428Z,87.5
2017-05-19T08:32:34.388Z,87.37
2017-05-19T08:33:34.074Z,87.7
2017-05-19T08:34:34.366Z,86.98
2017-05-19T08:35:34.339Z,87.37
2017-05-19T08:36:34.311Z,87.27
2017-05-19T08:37:34.293Z,87.94
2017-05-19T08:38:34.273Z,87.55
2017-05-19T08:39:34.261Z,88.03
2017-05-19T08:40:34.233Z,87.98
2017-05-19T08:41:34.207Z,87.65
2017-05-19T08:42:33.886Z,88.03
2017-05-19T08:43:34.183Z,87.5
2017-05-19T08:44:34.152Z,87.5
2017-05-19T08:45:34.140Z,87.31
2017-05-19T08:46:34.112Z,86.88
2017-05-19T08:47:34.147Z,86.98
2017-05-19T08:48:34.077Z,86.79
2017-05-19T08:49:34.055Z,86.88
2017-05-19T08:50:34.076Z,86.88
2017-05-19T08:51:34.025Z,86.98
2017-05-19T08:52:33.996Z,86.98
2017-05-19T08:53:33.971Z,86.88
2017-05-19T08:54:33.948Z,86.6
2017-05-19T08:55:33.931Z,86.88
2017-05-19T08:56:33.915Z,86.88
2017-05-19T08:57:33.890Z,86.79
2017-05-19T08:58:33.869Z,87.17
2017-05-19T08:59:33.850Z,87.17
2017-05-19T09:00:33.834Z,87.17
2017-05-19T09:01:33.801Z,87.27
2017-05-19T09:02:33.790Z,87.08
2017-05-19T09:03:33.770Z,87.74
2017-05-19T09:04:34.076Z,87.46
2017-05-19T09:05:33.424Z,87.37
2017-05-19T09:06:33.749Z,87.37
2017-05-19T09:07:33.698Z,87.17
2017-05-19T09:08:33.683Z,86.88
2017-05-19T09:09:33.356Z,86.69
2017-05-19T09:10:33.633Z,86.88
2017-05-19T09:11:33.604Z,86.79
2017-05-19T09:12:33.586Z,86.31
2017-05-19T09:13:33.569Z,86.41
2017-05-19T09:14:33.546Z,86.5
2017-05-19T09:15:33.530Z,86.12
2017-05-19T09:16:33.219Z,86.02
2017-05-19T09:17:33.534Z,86.21
2017-05-19T09:18:33.475Z,85.93
2017-05-19T09:19:33.445Z,86.12
2017-05-19T09:20:33.442Z,85.45
2017-05-19T09:21:33.403Z,85.74
2017-05-19T09:22:33.387Z,85.64
2017-05-19T09:23:33.368Z,85.54
2017-05-19T09:24:33.364Z,85.25
2017-05-19T09:25:33.373Z,85.64
2017-05-19T09:26:33.311Z,85.74
2017-05-19T09:27:33.293Z,85.74
2017-05-19T09:28:33.275Z,85.83
2017-05-19T09:29:33.243Z,86.02
2017-05-19T09:30:33.282Z,85.74
2017-05-19T09:31:33.217Z,85.54
2017-05-19T09:32:33.215Z,85.35
2017-05-19T09:33:33.163Z,85.74
2017-05-19T09:34:33.153Z,85.83
2017-05-19T09:35:33.118Z,85.64
2017-05-19T09:36:33.101Z,85.93
2017-05-19T09:37:33.095Z,85.54
2017-05-19T09:38:33.070Z,85.35
2017-05-19T09:39:33.050Z,85.16
2017-05-19T09:40:33.051Z,85.25
2017-05-19T09:41:33.006Z,85.45
2017-05-19T09:42:32.704Z,85.25
2017-05-19T09:43:32.669Z,85.16
2017-05-19T09:44:32.968Z,85.16
2017-05-19T09:45:32.919Z,84.97
2017-05-19T09:46:32.908Z,85.16
2017-05-19T09:47:32.892Z,85.54
2017-05-19T09:48:32.881Z,85.54
2017-05-19T09:49:32.887Z,85.54
2017-05-19T09:50:32.843Z,85.35
2017-05-19T09:51:32.818Z,85.54
2017-05-19T09:52:32.793Z,85.16
2017-05-19T09:53:32.785Z,85.16
2017-05-19T09:54:32.756Z,85.25
2017-05-19T09:55:32.724Z,85.16
2017-05-19T09:56:32.703Z,85.25
2017-05-19T09:57:32.717Z,84.97
2017-05-19T09:58:32.677Z,85.25
2017-05-19T09:59:32.666Z,85.25
2017-05-19T10:00:32.642Z,85.25
2017-05-19T10:01:32.614Z,85.16
2017-05-19T10:02:32.597Z,85.06
2017-05-19T10:03:32.273Z,85.16
2017-05-19T10:04:32.573Z,85.45
2017-05-19T10:05:32.536Z,85.01
2017-05-19T10:06:32.499Z,85.06
2017-05-19T10:07:32.481Z,85.35
2017-05-19T10:08:32.469Z,85.21
2017-05-19T10:09:32.443Z,84.72
2017-05-19T10:10:32.427Z,84.72
2017-05-19T10:11:32.405Z,84.53
2017-05-19T10:12:32.389Z,84.72
2017-05-19T10:13:32.369Z,84.15
2017-05-19T10:14:32.342Z,83.76
2017-05-19T10:15:32.327Z,84.34
2017-05-19T10:16:32.308Z,84.34
2017-05-19T10:17:32.284Z,84.34
2017-05-19T10:18:32.268Z,84.15
2017-05-19T10:19:32.248Z,83.76
2017-05-19T10:20:32.227Z,83.38
2017-05-19T10:21:32.205Z,83.29
2017-05-19T10:22:32.191Z,83.38
2017-05-19T10:23:32.169Z,83.76
2017-05-19T10:24:32.202Z,83.58
2017-05-19T10:25:32.129Z,83.76
2017-05-19T10:26:32.110Z,83.58
2017-05-19T10:27:32.098Z,83.58
2017-05-19T10:28:32.074Z,83.95
2017-05-19T10:29:32.050Z,83.61
2017-05-19T10:30:31.771Z,83.52
2017-05-19T10:31:32.011Z,83.04
2017-05-19T10:32:31.992Z,82.75
2017-05-19T10:33:31.973Z,83.23
2017-05-19T10:34:31.958Z,82.85
2017-05-19T10:35:31.995Z,82.37
2017-05-19T10:36:31.917Z,82.21
2017-05-19T10:37:31.900Z,81.64
2017-05-19T10:38:31.875Z,81.84
2017-05-19T10:39:31.858Z,81.74
2017-05-19T10:40:31.888Z,80.49
2017-05-19T10:41:31.823Z,80.68
2017-05-19T10:42:31.818Z,80.68
2017-05-19T10:43:31.790Z,81.12
2017-05-19T10:44:31.760Z,80.58
2017-05-19T10:45:31.745Z,81.02
2017-05-19T10:46:31.423Z,80.87
2017-05-19T10:47:31.717Z,80.97
2017-05-19T10:48:31.685Z,80.58
2017-05-19T10:49:31.664Z,80.07
2017-05-19T10:50:31.700Z,81.07
2017-05-19T10:51:31.330Z,80.55
2017-05-19T10:52:31.610Z,80.87
2017-05-19T10:53:31.635Z,80.83
2017-05-19T10:54:31.570Z,80.49
2017-05-19T10:55:31.552Z,80.3
2017-05-19T10:56:31.543Z,80.55
2017-05-19T10:57:31.508Z,80.68
2017-05-19T10:58:31.498Z,80.64
2017-05-19T10:59:31.475Z,80.58
2017-05-19T11:00:31.461Z,79.78
2017-05-19T11:01:31.455Z,79.05
2017-05-19T11:02:31.421Z,78.96
2017-05-19T11:03:31.401Z,78.44
2017-05-19T11:04:31.384Z,78.53
2017-05-19T11:05:31.377Z,78.44
2017-05-19T11:06:31.343Z,78.53
2017-05-19T11:07:31.318Z,78.53
2017-05-19T11:08:31.300Z,78.25
2017-05-19T11:09:31.288Z,77.86
2017-05-19T11:10:31.278Z,77.86
2017-05-19T11:11:31.249Z,77.95
2017-05-19T11:12:31.227Z,78.05
2017-05-19T11:13:31.512Z,78.05
2017-05-19T11:14:31.204Z,77.95
2017-05-19T11:15:31.160Z,78.92
2017-05-19T11:16:31.158Z,78.44
2017-05-19T11:17:31.128Z,78.69
2017-05-19T11:18:31.172Z,79.26
2017-05-19T11:19:31.085Z,79.01
2017-05-19T11:20:31.065Z,78.4
2017-05-19T11:21:31.049Z,78.49
2017-05-19T11:22:31.026Z,78.49
2017-05-19T11:23:31.002Z,78.3
2017-05-19T11:24:31.008Z,78.49
2017-05-19T11:25:30.970Z,78.59
2017-05-19T11:26:30.955Z,79.13
2017-05-19T11:27:30.936Z,79.07
2017-05-19T11:28:30.928Z,79.32
2017-05-19T11:29:30.909Z,79.7
2017-05-19T11:30:30.872Z,79.51
2017-05-19T11:31:30.855Z,79.51
2017-05-19T11:32:30.832Z,79.8
2017-05-19T11:33:30.812Z,79.7
2017-05-19T11:34:30.796Z,80.47
2017-05-19T11:35:30.470Z,80.56
2017-05-19T11:36:30.748Z,80.56
2017-05-19T11:37:30.731Z,79.89
2017-05-19T11:38:30.714Z,80.76
2017-05-19T11:39:30.688Z,80.37
2017-05-19T11:40:30.671Z,80.33
2017-05-19T11:41:30.645Z,80.62
2017-05-19T11:42:30.631Z,80.47
2017-05-19T11:43:30.317Z,80.81
2017-05-19T11:44:30.593Z,80.33
2017-05-19T11:45:30.567Z,81
2017-05-19T11:46:30.851Z,81.2
2017-05-19T11:47:30.223Z,81.96
2017-05-19T11:48:30.517Z,81.57
2017-05-19T11:49:30.501Z,82.53
2017-05-19T11:50:30.469Z,81.48
2017-05-19T11:51:30.448Z,82.24
2017-05-19T11:52:30.424Z,82.24
2017-05-19T11:53:30.401Z,82.43
2017-05-19T11:54:30.388Z,81.86
2017-05-19T11:55:30.367Z,82.43
2017-05-19T11:56:30.399Z,82.73
2017-05-19T11:57:30.335Z,82.82
2017-05-19T11:58:30.313Z,83.3
2017-05-19T11:59:30.284Z,83.59
2017-05-19T12:00:30.264Z,83.3
2017-05-19T12:01:30.242Z,83.49
2017-05-19T12:02:30.219Z,83.68
2017-05-19T12:03:30.203Z,83.59
2017-05-19T12:04:30.179Z,83.97
2017-05-19T12:05:30.164Z,84.06
2017-05-19T12:06:30.132Z,84.83
2017-05-19T12:07:30.118Z,84.45
2017-05-19T12:08:30.150Z,85.31
2017-05-19T12:09:30.081Z,84.55
2017-05-19T12:10:30.056Z,84.92
2017-05-19T12:11:30.036Z,85.21
2017-05-19T12:12:30.013Z,85.21
2017-05-19T12:13:29.994Z,85.5
2017-05-19T12:14:29.975Z,85.5
2017-05-19T12:15:29.955Z,85.79
2017-05-19T12:16:29.935Z,85.79
2017-05-19T12:17:29.910Z,85.88
2017-05-19T12:18:29.896Z,86.46
2017-05-19T12:19:29.886Z,86.17
2017-05-19T12:20:29.851Z,86.17
2017-05-19T12:21:29.828Z,86.55
2017-05-19T12:22:29.809Z,86.55
2017-05-19T12:23:29.785Z,86.65
2017-05-19T12:24:29.776Z,86.84
2017-05-19T12:25:29.753Z,86.94
2017-05-19T12:26:29.430Z,87.37
2017-05-19T12:27:29.712Z,87.95
2017-05-19T12:28:29.692Z,87.95
2017-05-19T12:29:29.667Z,88.33
2017-05-19T12:30:29.647Z,88.43
2017-05-19T12:31:29.631Z,88.43
2017-05-19T12:32:29.306Z,88.23
2017-05-19T12:33:29.588Z,88.52
2017-05-19T12:34:29.568Z,88.52
2017-05-19T12:35:29.551Z,88.81
2017-05-19T12:36:29.532Z,88.62
2017-05-19T12:37:29.515Z,88.71
2017-05-19T12:38:29.484Z,88.9
2017-05-19T12:39:29.464Z,89.09
2017-05-19T12:40:29.439Z,89.19
2017-05-19T12:41:29.436Z,89.09
2017-05-19T12:42:29.403Z,89.09
2017-05-19T12:43:29.382Z,89.76
2017-05-19T12:44:29.362Z,89.76
2017-05-19T12:45:29.340Z,89.86
2017-05-19T12:46:29.312Z,89.58
2017-05-19T12:47:29.299Z,90.24
2017-05-19T12:48:29.282Z,90.05
2017-05-19T12:49:29.258Z,90.05
2017-05-19T12:50:29.231Z,90.1
2017-05-19T12:51:29.236Z,90.24
2017-05-19T12:52:29.253Z,90.34
2017-05-19T12:53:29.179Z,90.72
2017-05-19T12:54:29.158Z,90.53
2017-05-19T12:55:29.138Z,90.53